Time;durP1;ratioP1;P1;durP2;ratioP2;P2;SDS_P1;SDS_P2;PMS_P1;PMS_P2;Temp;Humidity;BMP_temperature;BMP_pressure;BME280_temperature;BME280_humidity;BME280_pressure;Samples;Min_cycle;Max_cycle;Signal;HPM_P1;HPM_P2
2023/09/25 00:00:33;;;;;;;10.43;9.63;;;;;;;;;;10251940;28;20486;-68
2023/09/25 00:05:30;;;;;;;11.13;10.20;;;;;;;;;;10230198;28;20041;-70
2023/09/25 00:10:26;;;;;;;10.40;9.52;;;;;;;;;;10264608;28;20218;-69
2023/09/25 00:15:23;;;;;;;10.02;9.32;;;;;;;;;;10216249;28;20057;-68
2023/09/25 00:20:23;;;;;;;10.32;9.43;;;;;;;;;;10260604;28;20048;-68
2023/09/25 00:25:20;;;;;;;10.73;9.70;;;;;;;;;;10226874;28;20119;-72
2023/09/25 00:30:16;;;;;;;10.32;9.38;;;;;;;;;;10256648;28;20100;-72
2023/09/25 00:35:13;;;;;;;9.38;8.68;;;;;;;;;;10225151;28;20050;-72
2023/09/25 00:40:18;;;;;;;9.75;8.95;;;;;;;;;;10266085;28;20072;-68
2023/09/25 00:45:14;;;;;;;9.38;8.68;;;;;;;;;;10258871;28;20130;-67
2023/09/25 00:50:11;;;;;;;9.63;8.73;;;;;;;;;;10224525;28;20136;-68
2023/09/25 00:55:07;;;;;;;9.20;8.50;;;;;;;;;;10221863;28;20067;-68
2023/09/25 01:00:04;;;;;;;10.70;9.70;;;;;;;;;;10222715;28;20072;-67
2023/09/25 01:05:02;;;;;;;10.00;9.10;;;;;;;;;;10259571;28;20408;-69
2023/09/25 01:10:13;;;;;;;9.70;8.90;;;;;;;;;;10267540;28;20076;-69
2023/09/25 01:15:10;;;;;;;10.20;9.23;;;;;;;;;;10259723;28;20045;-69
2023/09/25 01:20:11;;;;;;;9.98;9.18;;;;;;;;;;10201925;28;20104;-69
2023/09/25 01:25:10;;;;;;;9.73;9.02;;;;;;;;;;10214909;28;20585;-69
2023/09/25 01:30:08;;;;;;;9.77;9.02;;;;;;;;;;10276139;28;20100;-70
2023/09/25 01:35:11;;;;;;;9.70;8.95;;;;;;;;;;10210639;28;20513;-69
2023/09/25 01:40:11;;;;;;;10.63;9.63;;;;;;;;;;10272713;28;20048;-69
2023/09/25 01:45:08;;;;;;;9.82;9.02;;;;;;;;;;10221909;28;20045;-69
2023/09/25 01:50:06;;;;;;;11.27;10.27;;;;;;;;;;10274821;28;20849;-70
2023/09/25 01:55:04;;;;;;;10.10;9.30;;;;;;;;;;10228445;28;20050;-69
2023/09/25 02:00:06;;;;;;;9.88;9.13;;;;;;;;;;10270481;28;20049;-70
2023/09/25 02:05:03;;;;;;;9.88;9.13;;;;;;;;;;10273425;28;20068;-69
2023/09/25 02:10:00;;;;;;;9.95;9.15;;;;;;;;;;10274968;28;20512;-68
2023/09/25 02:14:57;;;;;;;11.38;10.40;;;;;;;;;;10225725;28;20042;-68
2023/09/25 02:19:54;;;;;;;9.88;9.18;;;;;;;;;;10225017;28;20104;-70
2023/09/25 02:24:50;;;;;;;10.30;9.48;;;;;;;;;;10270998;28;20539;-69
2023/09/25 02:29:46;;;;;;;10.18;9.20;;;;;;;;;;10227854;28;20064;-69
2023/09/25 02:34:42;;;;;;;10.73;9.88;;;;;;;;;;10262571;28;20049;-70
2023/09/25 02:39:39;;;;;;;10.10;9.30;;;;;;;;;;10226451;28;20615;-69
2023/09/25 02:44:35;;;;;;;10.40;9.57;;;;;;;;;;10223668;28;20049;-69
2023/09/25 02:49:31;;;;;;;10.35;9.50;;;;;;;;;;10267849;28;20080;-69
2023/09/25 02:54:28;;;;;;;10.10;9.35;;;;;;;;;;10232051;28;20069;-69
2023/09/25 02:59:24;;;;;;;10.38;9.57;;;;;;;;;;10268339;28;20069;-69
2023/09/25 03:04:21;;;;;;;9.68;8.98;;;;;;;;;;10233461;28;20056;-69
2023/09/25 03:09:17;;;;;;;10.80;10.00;;;;;;;;;;10266653;28;20045;-68
2023/09/25 03:14:14;;;;;;;10.95;10.05;;;;;;;;;;10232821;28;20053;-69
2023/09/25 03:19:10;;;;;;;10.90;10.10;;;;;;;;;;10224641;28;20038;-70
2023/09/25 03:24:07;;;;;;;10.88;9.98;;;;;;;;;;10258006;28;20113;-70
2023/09/25 03:29:06;;;;;;;10.57;9.68;;;;;;;;;;10233648;28;20063;-71
2023/09/25 03:34:02;;;;;;;10.80;10.07;;;;;;;;;;10216988;28;20054;-70
2023/09/25 03:38:59;;;;;;;13.73;10.38;;;;;;;;;;10220219;28;20072;-70
2023/09/25 03:43:55;;;;;;;11.80;10.90;;;;;;;;;;10249613;28;20578;-72
2023/09/25 03:48:52;;;;;;;11.32;10.52;;;;;;;;;;10253250;28;20042;-71
2023/09/25 03:53:49;;;;;;;11.40;10.35;;;;;;;;;;10231270;28;20519;-71
2023/09/25 03:58:49;;;;;;;11.70;10.60;;;;;;;;;;10248581;28;20140;-71
2023/09/25 04:03:46;;;;;;;11.38;10.48;;;;;;;;;;10233087;28;20042;-70
2023/09/25 04:08:42;;;;;;;11.90;10.95;;;;;;;;;;10248848;28;20057;-71
2023/09/25 04:13:39;;;;;;;11.65;10.65;;;;;;;;;;10236323;28;20045;-73
2023/09/25 04:18:35;;;;;;;11.43;10.52;;;;;;;;;;10220254;28;20107;-72
2023/09/25 04:23:33;;;;;;;11.38;10.35;;;;;;;;;;10258388;28;20408;-73
2023/09/25 04:28:30;;;;;;;11.82;10.82;;;;;;;;;;10228389;28;20065;-74
2023/09/25 04:33:26;;;;;;;11.88;10.63;;;;;;;;;;10250568;28;20525;-74
2023/09/25 04:38:25;;;;;;;11.63;10.65;;;;;;;;;;10268101;28;20455;-72
2023/09/25 04:43:22;;;;;;;13.02;11.90;;;;;;;;;;10230583;28;20053;-71
2023/09/25 04:48:18;;;;;;;12.43;11.43;;;;;;;;;;10234440;28;21094;-75
2023/09/25 04:53:15;;;;;;;13.23;12.15;;;;;;;;;;10253738;28;20524;-75
2023/09/25 04:58:12;;;;;;;12.95;11.60;;;;;;;;;;10227034;28;20050;-75
2023/09/25 05:03:08;;;;;;;12.02;11.07;;;;;;;;;;10245491;28;20048;-74
2023/09/25 05:08:05;;;;;;;12.90;11.68;;;;;;;;;;10241412;28;20417;-75
2023/09/25 05:13:01;;;;;;;12.75;11.70;;;;;;;;;;10250014;28;20037;-75
2023/09/25 05:17:57;;;;;;;12.10;11.20;;;;;;;;;;10262223;28;20588;-74
2023/09/25 05:22:55;;;;;;;12.57;11.60;;;;;;;;;;10240486;28;20057;-74
2023/09/25 05:27:52;;;;;;;12.82;11.77;;;;;;;;;;10245066;28;20497;-75
2023/09/25 05:32:52;;;;;;;12.77;11.77;;;;;;;;;;10234191;28;20054;-75
2023/09/25 05:37:48;;;;;;;12.15;11.05;;;;;;;;;;10244766;28;20072;-74
2023/09/25 05:42:47;;;;;;;13.45;12.35;;;;;;;;;;10240408;28;20395;-74
2023/09/25 05:47:44;;;;;;;12.23;11.23;;;;;;;;;;10222574;28;20135;-75
2023/09/25 05:52:41;;;;;;;11.73;10.63;;;;;;;;;;10219018;28;20168;-74
2023/09/25 05:57:37;;;;;;;11.45;10.30;;;;;;;;;;10219200;28;20054;-74
2023/09/25 06:02:34;;;;;;;12.32;11.35;;;;;;;;;;10242294;28;20076;-74
2023/09/25 06:07:33;;;;;;;11.73;10.75;;;;;;;;;;10237258;28;20081;-75
2023/09/25 06:12:29;;;;;;;11.32;10.20;;;;;;;;;;10235111;28;20045;-74
2023/09/25 06:17:26;;;;;;;13.77;10.93;;;;;;;;;;10263566;28;20132;-74
2023/09/25 06:22:23;;;;;;;11.15;10.18;;;;;;;;;;10245349;28;20063;-74
2023/09/25 06:27:19;;;;;;;13.30;10.55;;;;;;;;;;10250087;28;20041;-75
2023/09/25 06:32:16;;;;;;;11.02;10.10;;;;;;;;;;10253497;28;20501;-75
2023/09/25 06:37:12;;;;;;;11.48;10.55;;;;;;;;;;10248367;28;20040;-74
2023/09/25 06:42:09;;;;;;;10.38;9.57;;;;;;;;;;10269858;28;20041;-73
2023/09/25 06:47:05;;;;;;;10.73;9.82;;;;;;;;;;10254527;28;20077;-74
2023/09/25 06:52:02;;;;;;;11.68;10.55;;;;;;;;;;10247386;28;20076;-75
2023/09/25 06:56:58;;;;;;;10.60;9.70;;;;;;;;;;10269932;28;23997;-75
2023/09/25 07:01:55;;;;;;;10.05;9.25;;;;;;;;;;10253502;28;20556;-75
2023/09/25 07:06:52;;;;;;;11.00;10.10;;;;;;;;;;10247133;28;20053;-75
2023/09/25 07:11:49;;;;;;;10.30;9.13;;;;;;;;;;10266024;28;20045;-75
2023/09/25 07:16:45;;;;;;;10.93;10.02;;;;;;;;;;10251250;28;20084;-74
2023/09/25 07:21:42;;;;;;;9.48;8.68;;;;;;;;;;10240431;28;20041;-75
2023/09/25 07:26:40;;;;;;;9.85;9.05;;;;;;;;;;10248576;28;20523;-75
2023/09/25 07:31:36;;;;;;;10.25;9.30;;;;;;;;;;10216087;28;20049;-75
2023/09/25 07:36:32;;;;;;;9.88;8.98;;;;;;;;;;10227158;28;20053;-75
2023/09/25 07:41:29;;;;;;;9.77;8.57;;;;;;;;;;10227463;28;20068;-75
2023/09/25 07:46:25;;;;;;;8.73;7.93;;;;;;;;;;10238046;28;20198;-74
2023/09/25 07:51:24;;;;;;;8.40;7.80;;;;;;;;;;10259185;28;20139;-75
2023/09/25 07:56:21;;;;;;;9.10;8.30;;;;;;;;;;10240882;28;20052;-74
2023/09/25 08:01:17;;;;;;;8.30;7.60;;;;;;;;;;10257441;28;20509;-75
2023/09/25 08:06:15;;;;;;;10.75;8.00;;;;;;;;;;10231515;28;20053;-75
2023/09/25 08:11:15;;;;;;;8.85;8.05;;;;;;;;;;10259719;28;20107;-75
2023/09/25 08:16:11;;;;;;;8.88;8.07;;;;;;;;;;10222571;28;20048;-75
2023/09/25 08:21:08;;;;;;;8.93;8.13;;;;;;;;;;10228074;28;20075;-75
2023/09/25 08:26:07;;;;;;;8.63;7.82;;;;;;;;;;10261656;28;20128;-75
2023/09/25 08:31:03;;;;;;;8.88;7.97;;;;;;;;;;10221327;28;20398;-75
2023/09/25 08:36:00;;;;;;;12.65;8.07;;;;;;;;;;10223031;28;20099;-74
2023/09/25 08:40:57;;;;;;;7.93;7.22;;;;;;;;;;10224207;28;20045;-75
2023/09/25 08:45:53;;;;;;;8.65;7.57;;;;;;;;;;10225240;28;20537;-75
2023/09/25 08:50:49;;;;;;;8.82;8.00;;;;;;;;;;10217954;28;20118;-75
2023/09/25 08:55:46;;;;;;;7.97;7.30;;;;;;;;;;10259773;28;20049;-75
2023/09/25 09:00:43;;;;;;;7.90;7.30;;;;;;;;;;10224217;28;20091;-75
2023/09/25 09:05:39;;;;;;;7.57;6.97;;;;;;;;;;10232090;28;20136;-75
2023/09/25 09:10:38;;;;;;;11.10;6.93;;;;;;;;;;10261191;28;20045;-74
2023/09/25 09:15:34;;;;;;;7.50;6.90;;;;;;;;;;10214889;28;20527;-74
2023/09/25 09:20:36;;;;;;;8.77;7.13;;;;;;;;;;10260908;28;20047;-75
2023/09/25 09:25:33;;;;;;;7.80;7.13;;;;;;;;;;10262172;28;20111;-74
2023/09/25 09:30:30;;;;;;;7.30;6.75;;;;;;;;;;10226105;28;20121;-75
2023/09/25 09:35:26;;;;;;;7.90;7.30;;;;;;;;;;10266592;28;20124;-75
2023/09/25 09:40:24;;;;;;;7.60;7.05;;;;;;;;;;10261474;28;20461;-74
2023/09/25 09:45:20;;;;;;;7.93;7.22;;;;;;;;;;10222262;28;20045;-75
2023/09/25 09:50:27;;;;;;;7.78;7.20;;;;;;;;;;10225368;28;20478;-75
2023/09/25 09:55:24;;;;;;;8.73;8.07;;;;;;;;;;10264381;28;20041;-75
2023/09/25 10:00:20;;;;;;;7.78;7.07;;;;;;;;;;10235407;28;20121;-75
2023/09/25 10:05:17;;;;;;;8.38;7.75;;;;;;;;;;10269825;28;20064;-75
2023/09/25 10:10:13;;;;;;;8.38;7.68;;;;;;;;;;10235326;28;20077;-75
2023/09/25 10:15:12;;;;;;;8.05;7.35;;;;;;;;;;10272187;28;20514;-74
2023/09/25 10:20:28;;;;;;;7.18;6.68;;;;;;;;;;10223775;28;20313;-74
2023/09/25 10:25:25;;;;;;;7.93;7.15;;;;;;;;;;10230000;28;20052;-75
2023/09/25 10:30:22;;;;;;;7.85;7.28;;;;;;;;;;10271234;28;20441;-75
2023/09/25 10:35:37;;;;;;;8.20;7.55;;;;;;;;;;10232876;28;20555;-75
2023/09/25 10:40:35;;;;;;;8.02;7.43;;;;;;;;;;10271441;28;20044;-75
2023/09/25 10:45:33;;;;;;;7.80;7.20;;;;;;;;;;10269211;28;20088;-74
2023/09/25 10:50:30;;;;;;;8.23;7.60;;;;;;;;;;10227306;28;20041;-75
2023/09/25 10:55:26;;;;;;;7.30;6.60;;;;;;;;;;10267697;28;20127;-75
2023/09/25 11:00:22;;;;;;;7.70;7.00;;;;;;;;;;10227461;28;20049;-75
2023/09/25 11:05:21;;;;;;;7.80;7.20;;;;;;;;;;10228273;28;20049;-75
2023/09/25 11:10:17;;;;;;;6.90;6.30;;;;;;;;;;10227340;28;20087;-75
2023/09/25 11:15:17;;;;;;;7.13;6.63;;;;;;;;;;10232401;28;20045;-75
2023/09/25 11:20:29;;;;;;;6.85;6.25;;;;;;;;;;10270818;28;20106;-75
2023/09/25 11:25:25;;;;;;;7.17;6.10;;;;;;;;;;10224696;28;20115;-75
2023/09/25 11:30:26;;;;;;;7.50;6.70;;;;;;;;;;10233707;28;20118;-75
2023/09/25 11:35:25;;;;;;;7.22;6.55;;;;;;;;;;10264494;28;20050;-75
2023/09/25 11:40:22;;;;;;;8.02;6.68;;;;;;;;;;10227443;28;20398;-75
2023/09/25 11:45:19;;;;;;;7.40;6.80;;;;;;;;;;10271145;28;20053;-75
2023/09/25 11:50:16;;;;;;;11.27;6.38;;;;;;;;;;10264950;28;20045;-75
2023/09/25 11:55:14;;;;;;;7.50;5.90;;;;;;;;;;10224999;28;20050;-75
2023/09/25 12:00:12;;;;;;;7.75;6.50;;;;;;;;;;10224245;28;20053;-75
2023/09/25 12:05:09;;;;;;;6.68;6.10;;;;;;;;;;10228100;28;20833;-75
2023/09/25 12:10:06;;;;;;;7.00;6.40;;;;;;;;;;10220233;28;20068;-75
2023/09/25 12:15:03;;;;;;;6.75;6.15;;;;;;;;;;10269348;28;20459;-75
2023/09/25 12:20:00;;;;;;;7.25;6.55;;;;;;;;;;10229234;28;20095;-75
2023/09/25 12:24:56;;;;;;;6.85;6.32;;;;;;;;;;10268314;28;20045;-75
2023/09/25 12:29:53;;;;;;;6.35;5.85;;;;;;;;;;10221093;28;20107;-75
2023/09/25 12:34:49;;;;;;;11.07;6.03;;;;;;;;;;10255058;28;20507;-75
2023/09/25 12:39:45;;;;;;;6.43;5.93;;;;;;;;;;10228273;28;21412;-75
2023/09/25 12:44:42;;;;;;;7.00;6.30;;;;;;;;;;10227696;28;20104;-75
2023/09/25 12:49:38;;;;;;;7.35;6.65;;;;;;;;;;10226964;28;20103;-75
2023/09/25 12:54:35;;;;;;;6.85;6.25;;;;;;;;;;10263690;28;20049;-75
2023/09/25 12:59:31;;;;;;;6.63;6.03;;;;;;;;;;10223509;28;20103;-74
2023/09/25 13:04:28;;;;;;;6.68;5.97;;;;;;;;;;10262482;28;20044;-75
2023/09/25 13:09:25;;;;;;;6.28;5.85;;;;;;;;;;10227724;28;20609;-74
2023/09/25 13:14:21;;;;;;;6.55;5.90;;;;;;;;;;10227297;28;20041;-74
2023/09/25 13:19:17;;;;;;;7.38;6.28;;;;;;;;;;10220559;28;20655;-74
2023/09/25 13:24:15;;;;;;;6.05;5.45;;;;;;;;;;10219259;28;20041;-74
2023/09/25 13:29:11;;;;;;;6.95;6.35;;;;;;;;;;10224084;28;20521;-74
2023/09/25 13:34:07;;;;;;;6.88;6.28;;;;;;;;;;10217294;28;20096;-74
2023/09/25 13:39:04;;;;;;;6.00;5.50;;;;;;;;;;10225460;28;20510;-74
2023/09/25 13:44:00;;;;;;;6.68;6.00;;;;;;;;;;10267242;28;20524;-74
2023/09/25 13:48:56;;;;;;;6.63;5.82;;;;;;;;;;10234877;28;20095;-74
2023/09/25 13:53:55;;;;;;;6.10;5.50;;;;;;;;;;10261361;28;20037;-74
2023/09/25 13:58:51;;;;;;;5.65;5.15;;;;;;;;;;10243105;28;20045;-75
2023/09/25 14:03:51;;;;;;;6.22;5.63;;;;;;;;;;10257378;28;20051;-74
2023/09/25 14:08:48;;;;;;;6.50;6.00;;;;;;;;;;10270899;28;20041;-74
2023/09/25 14:13:44;;;;;;;6.28;5.68;;;;;;;;;;10285540;28;20454;-75
2023/09/25 14:18:40;;;;;;;6.50;5.90;;;;;;;;;;10257355;28;20045;-74
2023/09/25 14:23:38;;;;;;;6.13;5.63;;;;;;;;;;10266905;28;20052;-75
2023/09/25 14:28:34;;;;;;;6.28;5.63;;;;;;;;;;10264862;28;20482;-74
2023/09/25 14:33:35;;;;;;;6.15;5.65;;;;;;;;;;10255444;28;20032;-75
2023/09/25 14:38:31;;;;;;;6.85;6.25;;;;;;;;;;10266356;28;20175;-74
2023/09/25 14:43:27;;;;;;;6.18;5.57;;;;;;;;;;10268947;28;20033;-74
2023/09/25 14:48:24;;;;;;;6.38;5.70;;;;;;;;;;10271210;28;20780;-75
2023/09/25 14:53:20;;;;;;;6.50;5.90;;;;;;;;;;10269250;28;20149;-75
2023/09/25 14:58:17;;;;;;;6.07;5.55;;;;;;;;;;10243956;28;20084;-74
2023/09/25 15:03:13;;;;;;;6.10;5.50;;;;;;;;;;10218441;28;20046;-74
2023/09/25 15:08:10;;;;;;;6.20;5.40;;;;;;;;;;10255446;28;20547;-75
2023/09/25 15:13:06;;;;;;;6.60;6.00;;;;;;;;;;10244490;28;20053;-74
2023/09/25 15:18:03;;;;;;;6.75;5.90;;;;;;;;;;10228627;28;20056;-74
2023/09/25 15:22:59;;;;;;;7.07;6.43;;;;;;;;;;10252516;28;20049;-74
2023/09/25 15:27:56;;;;;;;6.10;5.50;;;;;;;;;;10247877;28;20180;-75
2023/09/25 15:32:52;;;;;;;7.97;5.90;;;;;;;;;;10240914;28;20456;-74
2023/09/25 15:37:49;;;;;;;7.82;6.20;;;;;;;;;;10248635;28;20047;-74
2023/09/25 15:42:45;;;;;;;6.68;6.03;;;;;;;;;;10267747;28;20767;-74
2023/09/25 15:47:43;;;;;;;9.40;5.88;;;;;;;;;;10257971;28;20082;-75
2023/09/25 15:52:39;;;;;;;6.43;5.82;;;;;;;;;;10238419;28;20061;-75
2023/09/25 15:57:36;;;;;;;6.53;5.93;;;;;;;;;;10240085;28;20049;-74
2023/09/25 16:02:32;;;;;;;6.60;6.00;;;;;;;;;;10266857;28;20198;-75
2023/09/25 16:14:07;;;;;;;6.63;6.00;;;;;;;;;;10181889;28;20045;-74
2023/09/25 16:24:53;;;;;;;6.47;5.78;;;;;;;;;;10080374;28;20047;-74
2023/09/25 16:29:49;;;;;;;6.82;6.13;;;;;;;;;;10091840;28;20766;-74
2023/09/25 16:34:45;;;;;;;6.28;5.68;;;;;;;;;;10087157;28;20091;-74
2023/09/25 16:39:42;;;;;;;7.50;5.97;;;;;;;;;;10087476;28;20050;-74
2023/09/25 16:44:38;;;;;;;6.88;5.88;;;;;;;;;;10093400;28;20527;-74
2023/09/25 16:49:35;;;;;;;8.38;6.03;;;;;;;;;;10090124;28;20738;-74
2023/09/25 16:54:31;;;;;;;6.63;5.43;;;;;;;;;;10123333;28;20056;-75
2023/09/25 16:59:27;;;;;;;6.70;5.82;;;;;;;;;;10214761;28;20053;-74
2023/09/25 17:04:24;;;;;;;8.23;5.80;;;;;;;;;;10214914;28;20444;-71
2023/09/25 17:09:20;;;;;;;7.03;6.20;;;;;;;;;;10222841;28;20125;-71
2023/09/25 17:14:16;;;;;;;6.78;6.18;;;;;;;;;;10229442;28;20038;-71
2023/09/25 17:19:16;;;;;;;9.18;6.28;;;;;;;;;;10224505;28;20108;-70
2023/09/25 17:24:13;;;;;;;8.18;6.82;;;;;;;;;;10209980;28;20069;-70
2023/09/25 17:29:09;;;;;;;7.05;6.45;;;;;;;;;;10218587;28;20046;-71
2023/09/25 17:34:05;;;;;;;8.23;7.18;;;;;;;;;;10214965;28;20780;-71
2023/09/25 17:39:02;;;;;;;8.70;7.90;;;;;;;;;;10209066;28;20048;-70
2023/09/25 17:43:58;;;;;;;11.02;8.55;;;;;;;;;;10205373;28;20077;-71
2023/09/25 17:48:55;;;;;;;8.85;8.05;;;;;;;;;;10221611;28;20052;-71
2023/09/25 17:53:51;;;;;;;8.85;8.02;;;;;;;;;;10211900;28;20057;-70
2023/09/25 17:58:48;;;;;;;9.95;8.88;;;;;;;;;;10210426;28;20046;-70
2023/09/25 18:03:44;;;;;;;10.02;9.00;;;;;;;;;;10204228;28;20180;-70
2023/09/25 18:08:41;;;;;;;11.38;9.23;;;;;;;;;;10201031;28;20576;-70
2023/09/25 18:13:37;;;;;;;13.25;9.82;;;;;;;;;;10204017;28;20050;-70
2023/09/25 18:18:33;;;;;;;12.27;9.30;;;;;;;;;;10208448;28;20081;-70
2023/09/25 18:23:30;;;;;;;11.65;9.70;;;;;;;;;;10230005;28;20041;-70
2023/09/25 18:28:27;;;;;;;13.18;9.77;;;;;;;;;;10222982;28;20055;-70
2023/09/25 18:33:23;;;;;;;11.90;9.45;;;;;;;;;;10219721;28;20045;-70
2023/09/25 18:38:19;;;;;;;9.98;8.88;;;;;;;;;;10219440;28;20517;-69
2023/09/25 18:43:16;;;;;;;11.70;9.05;;;;;;;;;;10217327;28;20053;-70
2023/09/25 18:48:12;;;;;;;10.48;8.57;;;;;;;;;;10203047;28;20041;-70
2023/09/25 18:53:09;;;;;;;12.25;9.93;;;;;;;;;;10220671;28;20053;-72
2023/09/25 18:58:05;;;;;;;11.68;10.27;;;;;;;;;;10214432;28;20042;-73
2023/09/25 19:03:02;;;;;;;13.15;8.60;;;;;;;;;;10216671;28;20576;-71
2023/09/25 19:08:01;;;;;;;10.77;9.13;;;;;;;;;;10218312;28;20065;-71
2023/09/25 19:12:57;;;;;;;12.30;10.27;;;;;;;;;;10222689;28;20056;-70
2023/09/25 19:17:57;;;;;;;11.02;9.38;;;;;;;;;;10211560;28;20037;-70
2023/09/25 19:22:53;;;;;;;12.43;9.80;;;;;;;;;;10210465;28;20697;-70
2023/09/25 19:27:51;;;;;;;13.27;10.13;;;;;;;;;;10225509;28;20425;-70
2023/09/25 19:32:47;;;;;;;11.15;9.02;;;;;;;;;;10208825;28;20053;-70
2023/09/25 19:37:44;;;;;;;11.07;9.75;;;;;;;;;;10226629;28;20048;-71
2023/09/25 19:42:40;;;;;;;10.95;9.80;;;;;;;;;;10217143;28;20736;-71
2023/09/25 19:47:37;;;;;;;14.70;10.70;;;;;;;;;;10204196;28;20164;-70
2023/09/25 19:52:33;;;;;;;11.07;9.15;;;;;;;;;;10205504;28;20058;-70
2023/09/25 19:57:29;;;;;;;12.43;9.98;;;;;;;;;;10225199;28;20048;-70
2023/09/25 20:02:26;;;;;;;16.55;11.00;;;;;;;;;;10214036;28;20050;-70
2023/09/25 20:07:23;;;;;;;19.20;11.18;;;;;;;;;;10216262;28;20497;-71
2023/09/25 20:12:19;;;;;;;17.50;11.68;;;;;;;;;;10218023;28;20046;-70
2023/09/25 20:17:15;;;;;;;12.63;10.77;;;;;;;;;;10212187;28;20037;-70
2023/09/25 20:22:12;;;;;;;11.77;10.52;;;;;;;;;;10230568;28;20045;-70
2023/09/25 20:27:08;;;;;;;11.48;10.35;;;;;;;;;;10212320;28;20045;-70
2023/09/25 20:32:05;;;;;;;12.27;10.07;;;;;;;;;;10219407;28;20041;-67
2023/09/25 20:37:02;;;;;;;13.25;10.93;;;;;;;;;;10217709;28;20399;-66
2023/09/25 20:41:59;;;;;;;12.35;10.80;;;;;;;;;;10218128;28;20042;-66
2023/09/25 20:46:58;;;;;;;12.77;10.52;;;;;;;;;;10210180;28;20071;-66
2023/09/25 20:51:55;;;;;;;11.90;10.70;;;;;;;;;;10206998;28;20049;-66
2023/09/25 20:56:51;;;;;;;12.43;10.80;;;;;;;;;;10213781;28;20065;-67
2023/09/25 21:01:48;;;;;;;12.90;10.63;;;;;;;;;;10226418;28;20045;-67
2023/09/25 21:06:44;;;;;;;12.23;10.77;;;;;;;;;;10208838;28;20085;-67
2023/09/25 21:11:40;;;;;;;15.85;10.18;;;;;;;;;;10204260;28;20038;-67
2023/09/25 21:16:37;;;;;;;11.73;10.52;;;;;;;;;;10206987;28;20104;-67
2023/09/25 21:21:33;;;;;;;12.65;10.50;;;;;;;;;;10209314;28;20053;-67
2023/09/25 21:26:29;;;;;;;12.88;11.38;;;;;;;;;;10212619;28;20045;-67
2023/09/25 21:31:26;;;;;;;12.05;10.85;;;;;;;;;;10218353;28;20777;-66
2023/09/25 21:36:23;;;;;;;15.00;11.90;;;;;;;;;;10211831;28;20056;-67
2023/09/25 21:41:19;;;;;;;11.88;10.77;;;;;;;;;;10215353;28;20042;-67
2023/09/25 21:46:16;;;;;;;12.93;11.68;;;;;;;;;;10208012;28;20092;-67
2023/09/25 21:51:12;;;;;;;12.60;11.40;;;;;;;;;;10207777;28;20050;-66
2023/09/25 21:56:09;;;;;;;12.55;11.25;;;;;;;;;;10221549;28;20416;-67
2023/09/25 22:01:05;;;;;;;11.95;10.77;;;;;;;;;;10222063;28;20532;-67
2023/09/25 22:06:02;;;;;;;13.82;10.52;;;;;;;;;;10222862;28;20509;-67
2023/09/25 22:10:58;;;;;;;12.68;11.38;;;;;;;;;;10212208;28;20092;-66
2023/09/25 22:15:54;;;;;;;11.55;10.50;;;;;;;;;;10221890;28;20048;-67
2023/09/25 22:20:51;;;;;;;12.55;10.43;;;;;;;;;;10221412;28;20042;-67
2023/09/25 22:25:47;;;;;;;12.40;11.10;;;;;;;;;;10221243;28;20042;-67
2023/09/25 22:30:43;;;;;;;11.65;10.55;;;;;;;;;;10220903;28;20506;-67
2023/09/25 22:35:41;;;;;;;12.73;11.43;;;;;;;;;;10233231;28;20417;-67
2023/09/25 22:40:38;;;;;;;11.98;10.75;;;;;;;;;;10231493;28;20520;-67
2023/09/25 22:45:35;;;;;;;13.95;11.23;;;;;;;;;;10218141;28;20049;-68
2023/09/25 22:50:31;;;;;;;15.57;12.02;;;;;;;;;;10226869;28;20062;-68
2023/09/25 22:55:28;;;;;;;12.00;10.70;;;;;;;;;;10214432;28;20045;-66
2023/09/25 23:00:25;;;;;;;12.48;11.18;;;;;;;;;;10210507;28;20468;-67
2023/09/25 23:05:21;;;;;;;11.77;10.77;;;;;;;;;;10214019;28;20506;-67
2023/09/25 23:10:18;;;;;;;12.38;11.15;;;;;;;;;;10214762;28;20046;-67
2023/09/25 23:15:15;;;;;;;11.85;10.68;;;;;;;;;;10229442;28;20046;-67
2023/09/25 23:20:16;;;;;;;11.15;10.15;;;;;;;;;;10222983;28;20103;-66
2023/09/25 23:25:13;;;;;;;13.10;10.70;;;;;;;;;;10231567;28;20085;-67
2023/09/25 23:30:14;;;;;;;11.65;10.52;;;;;;;;;;10218110;28;20049;-66
2023/09/25 23:35:11;;;;;;;10.98;9.88;;;;;;;;;;10224017;28;20045;-66
2023/09/25 23:40:10;;;;;;;11.10;10.02;;;;;;;;;;10232148;28;20052;-66
2023/09/25 23:45:08;;;;;;;12.95;10.18;;;;;;;;;;10225885;28;20142;-66
2023/09/25 23:50:07;;;;;;;11.68;10.52;;;;;;;;;;10229346;28;20792;-66
2023/09/25 23:55:04;;;;;;;11.80;10.70;;;;;;;;;;10213075;28;20038;-66
